Time;durP1;ratioP1;P1;durP2;ratioP2;P2;SDS_P1;SDS_P2;PMS_P1;PMS_P2;Temp;Humidity;BMP_temperature;BMP_pressure;BME280_temperature;BME280_humidity;BME280_pressure;Samples;Min_cycle;Max_cycle;Signal;HPM_P1;HPM_P2
2022/01/08 00:00:16;;;;;;;;;;;1.30;99.90;;;;;;5015006;28;19921;-75
2022/01/08 00:02:42;;;;;;;;;;;1.30;99.90;;;;;;5013178;28;19969;-75
2022/01/08 00:05:08;;;;;;;;;;;1.30;99.90;;;;;;5014514;28;20274;-75
2022/01/08 00:07:34;;;;;;;;;;;1.20;99.90;;;;;;5014467;28;19929;-75
2022/01/08 00:09:59;;;;;;;;;;;1.20;99.90;;;;;;5030609;28;19970;-75
2022/01/08 00:12:25;;;;;;;;;;;1.20;99.90;;;;;;5030731;28;19925;-76
2022/01/08 00:14:50;;;;;;;;;;;1.10;99.90;;;;;;5014634;28;19937;-75
2022/01/08 00:17:16;;;;;;;;;;;1.20;99.90;;;;;;5013964;28;19921;-75
2022/01/08 00:19:42;;;;;;;;;;;1.10;99.90;;;;;;5014580;28;19921;-75
2022/01/08 00:22:08;;;;;;;;;;;1.00;99.90;;;;;;5014739;28;19973;-75
2022/01/08 00:24:34;;;;;;;;;;;1.00;99.90;;;;;;5013805;28;19996;-75
2022/01/08 00:26:59;;;;;;;;;;;0.90;99.90;;;;;;5014088;28;19968;-75
2022/01/08 00:29:25;;;;;;;;;;;0.90;99.90;;;;;;5014487;28;19921;-75
2022/01/08 00:31:50;;;;;;;;;;;0.90;99.90;;;;;;5013278;28;19924;-75
2022/01/08 00:34:16;;;;;;;;;;;0.90;99.90;;;;;;5030287;28;19922;-75
2022/01/08 00:36:41;;;;;;;;;;;0.90;99.90;;;;;;5032117;28;19921;-75
2022/01/08 00:39:07;;;;;;;;;;;0.90;99.90;;;;;;5031538;28;19928;-75
2022/01/08 00:41:32;;;;;;;;;;;0.80;99.90;;;;;;5015262;28;19979;-75
2022/01/08 00:43:58;;;;;;;;;;;0.80;99.90;;;;;;5014685;28;20348;-75
2022/01/08 00:46:26;;;;;;;;;;;0.80;99.90;;;;;;5015525;28;20445;-75
2022/01/08 00:48:52;;;;;;;;;;;0.70;99.90;;;;;;5015452;28;19960;-75
2022/01/08 00:51:17;;;;;;;;;;;0.70;99.90;;;;;;5014977;28;20005;-75
2022/01/08 00:53:43;;;;;;;;;;;0.70;99.90;;;;;;5015120;28;19936;-75
2022/01/08 00:56:08;;;;;;;;;;;0.60;99.90;;;;;;5014581;28;20389;-75
2022/01/08 00:58:34;;;;;;;;;;;0.60;99.90;;;;;;5015170;28;19921;-75
2022/01/08 01:01:00;;;;;;;;;;;0.50;99.90;;;;;;5015328;28;19963;-75
2022/01/08 01:03:25;;;;;;;;;;;0.40;99.90;;;;;;5016930;28;19944;-75
2022/01/08 01:05:51;;;;;;;;;;;0.40;99.90;;;;;;5018414;28;20015;-75
2022/01/08 01:08:16;;;;;;;;;;;0.40;99.90;;;;;;5019092;28;19921;-74
2022/01/08 01:10:42;;;;;;;;;;;0.40;99.90;;;;;;5035733;28;19928;-75
2022/01/08 01:13:08;;;;;;;;;;;0.30;99.90;;;;;;5018488;28;19925;-75
2022/01/08 01:15:33;;;;;;;;;;;0.30;99.90;;;;;;5018766;28;19928;-75
2022/01/08 01:17:59;;;;;;;;;;;0.30;99.90;;;;;;5034771;28;19932;-75
2022/01/08 01:20:25;;;;;;;;;;;0.30;99.90;;;;;;5017388;28;19921;-75
2022/01/08 01:23:00;;;;;;;;;;;0.40;99.90;;;;;;5016133;28;19920;-75
2022/01/08 01:25:50;;;;;;;;;;;0.40;99.90;;;;;;5017309;28;20408;-75
2022/01/08 01:41:04;;;;;;;;;;;0.60;99.90;;;;;;5033153;28;19925;-75
2022/01/08 01:47:04;;;;;;;;;;;0.80;99.90;;;;;;5036093;28;19921;-75
2022/01/08 01:49:34;;;;;;;;;;;0.70;99.90;;;;;;5019702;28;19921;-75
2022/01/08 01:52:00;;;;;;;;;;;0.70;99.90;;;;;;5018825;28;20027;-75
2022/01/08 01:54:27;;;;;;;;;;;0.70;99.90;;;;;;5019297;28;20063;-75
2022/01/08 01:56:53;;;;;;;;;;;0.60;99.90;;;;;;5019338;28;19928;-75
2022/01/08 01:59:18;;;;;;;;;;;0.60;99.90;;;;;;5019698;28;19921;-75
2022/01/08 02:01:44;;;;;;;;;;;0.70;99.90;;;;;;5019276;28;20435;-75
2022/01/08 02:04:09;;;;;;;;;;;0.70;99.90;;;;;;5019673;28;20373;-75
2022/01/08 02:06:35;;;;;;;;;;;0.80;99.90;;;;;;5018149;28;19921;-75
2022/01/08 02:09:01;;;;;;;;;;;0.70;99.90;;;;;;5017578;28;19921;-75
2022/01/08 02:11:26;;;;;;;;;;;0.70;99.90;;;;;;5018763;28;19968;-75
2022/01/08 02:14:00;;;;;;;;;;;0.70;99.90;;;;;;5018515;28;19921;-75
2022/01/08 02:16:27;;;;;;;;;;;0.70;99.90;;;;;;5018755;28;19990;-75
2022/01/08 02:18:52;;;;;;;;;;;0.70;99.90;;;;;;5018309;28;19925;-75
2022/01/08 02:21:18;;;;;;;;;;;0.70;99.90;;;;;;5018374;28;19970;-75
2022/01/08 02:23:48;;;;;;;;;;;0.60;99.90;;;;;;5017567;28;20212;-75
2022/01/08 02:26:13;;;;;;;;;;;0.60;99.90;;;;;;5017228;28;19928;-75
2022/01/08 02:28:39;;;;;;;;;;;0.50;99.90;;;;;;5034306;28;19925;-75
2022/01/08 02:31:05;;;;;;;;;;;0.50;99.90;;;;;;5034345;28;19943;-75
2022/01/08 02:33:31;;;;;;;;;;;0.50;99.90;;;;;;5017100;28;19921;-75
2022/01/08 02:35:57;;;;;;;;;;;0.50;99.90;;;;;;5017334;28;20042;-75
2022/01/08 02:38:24;;;;;;;;;;;0.50;99.90;;;;;;5018261;28;19963;-75
2022/01/08 02:41:01;;;;;;;;;;;0.50;99.90;;;;;;5034361;28;19925;-75
2022/01/08 02:43:28;;;;;;;;;;;0.50;99.90;;;;;;5017317;28;19921;-75
2022/01/08 02:45:56;;;;;;;;;;;0.60;99.90;;;;;;5018075;28;19925;-75
2022/01/08 02:48:22;;;;;;;;;;;0.60;99.90;;;;;;5017350;28;19991;-75
2022/01/08 02:50:47;;;;;;;;;;;0.70;99.90;;;;;;5017041;28;19921;-75
2022/01/08 02:53:13;;;;;;;;;;;0.70;99.90;;;;;;5016486;28;19932;-75
2022/01/08 02:55:39;;;;;;;;;;;0.70;99.90;;;;;;5016899;28;19973;-75
2022/01/08 02:58:04;;;;;;;;;;;0.70;99.90;;;;;;5017266;28;20237;-75
2022/01/08 03:00:30;;;;;;;;;;;0.70;99.90;;;;;;5016400;28;19995;-75
2022/01/08 03:02:56;;;;;;;;;;;0.70;99.90;;;;;;5016503;28;20408;-75
2022/01/08 03:05:21;;;;;;;;;;;0.60;99.90;;;;;;5016651;28;20296;-75
2022/01/08 03:07:48;;;;;;;;;;;0.60;99.90;;;;;;5033036;28;19945;-75
2022/01/08 03:10:15;;;;;;;;;;;0.60;99.90;;;;;;5016837;28;19928;-75
2022/01/08 03:12:41;;;;;;;;;;;0.60;99.90;;;;;;5015986;28;20265;-75
2022/01/08 03:15:09;;;;;;;;;;;0.70;99.90;;;;;;5033118;28;19928;-75
2022/01/08 03:17:34;;;;;;;;;;;0.70;99.90;;;;;;5016634;28;19925;-75
2022/01/08 03:20:05;;;;;;;;;;;0.70;99.90;;;;;;5016059;28;19921;-75
2022/01/08 03:22:31;;;;;;;;;;;0.60;99.90;;;;;;5016378;28;19927;-75
2022/01/08 03:24:56;;;;;;;;;;;0.70;99.90;;;;;;5015869;28;19921;-75
2022/01/08 03:27:22;;;;;;;;;;;0.50;99.90;;;;;;5016466;28;20008;-75
2022/01/08 03:29:49;;;;;;;;;;;0.60;99.90;;;;;;5031030;28;22980;-76
2022/01/08 03:32:15;;;;;;;;;;;0.60;99.90;;;;;;5015094;28;19955;-75
2022/01/08 03:34:40;;;;;;;;;;;0.60;99.90;;;;;;5014778;28;19921;-75
2022/01/08 03:37:06;;;;;;;;;;;0.60;99.90;;;;;;5014950;28;19928;-75
2022/01/08 03:39:32;;;;;;;;;;;0.50;99.90;;;;;;5015438;28;20022;-75
2022/01/08 03:41:57;;;;;;;;;;;0.50;99.90;;;;;;5015306;28;19925;-75
2022/01/08 03:44:23;;;;;;;;;;;0.50;99.90;;;;;;5014178;28;20408;-75
2022/01/08 03:46:49;;;;;;;;;;;0.50;99.90;;;;;;5015078;28;20019;-75
2022/01/08 03:49:25;;;;;;;;;;;0.50;99.90;;;;;;5015256;28;20016;-75
2022/01/08 03:51:51;;;;;;;;;;;0.50;99.90;;;;;;5014771;28;19926;-75
2022/01/08 03:54:17;;;;;;;;;;;0.60;99.90;;;;;;5013963;28;20004;-75
2022/01/08 03:56:42;;;;;;;;;;;0.50;99.90;;;;;;5014640;28;19983;-76
2022/01/08 03:59:08;;;;;;;;;;;0.50;99.90;;;;;;5014630;28;19940;-75
2022/01/08 04:01:34;;;;;;;;;;;0.50;99.90;;;;;;5014581;28;19921;-76
2022/01/08 04:03:59;;;;;;;;;;;0.50;99.90;;;;;;5014168;28;19970;-75
2022/01/08 04:06:25;;;;;;;;;;;0.50;99.90;;;;;;5014020;28;19928;-75
2022/01/08 04:08:56;;;;;;;;;;;0.50;99.90;;;;;;5014631;28;20008;-76
2022/01/08 04:11:22;;;;;;;;;;;0.60;99.90;;;;;;5014755;28;19931;-75
2022/01/08 04:13:48;;;;;;;;;;;0.60;99.90;;;;;;5014058;28;19921;-75
2022/01/08 04:16:19;;;;;;;;;;;0.70;99.90;;;;;;5014188;28;19927;-75
2022/01/08 04:18:44;;;;;;;;;;;0.70;99.90;;;;;;5014547;28;19921;-75
2022/01/08 04:23:51;;;;;;;;;;;0.80;99.90;;;;;;5030715;28;20449;-75
2022/01/08 04:26:17;;;;;;;;;;;0.80;99.90;;;;;;5014138;28;20012;-76
2022/01/08 04:28:42;;;;;;;;;;;0.80;99.90;;;;;;5030740;28;19921;-76
2022/01/08 04:31:08;;;;;;;;;;;0.70;99.90;;;;;;5014165;28;19928;-75
2022/01/08 04:33:36;;;;;;;;;;;0.80;99.90;;;;;;5013764;28;19922;-75
2022/01/08 04:36:02;;;;;;;;;;;0.80;99.90;;;;;;5014122;28;19928;-75
2022/01/08 04:38:27;;;;;;;;;;;0.80;99.90;;;;;;5014286;28;20363;-75
2022/01/08 04:40:53;;;;;;;;;;;0.80;99.90;;;;;;5014139;28;19943;-75
2022/01/08 04:43:20;;;;;;;;;;;0.90;99.90;;;;;;5013440;28;19932;-76
2022/01/08 04:45:47;;;;;;;;;;;0.80;99.90;;;;;;5014277;28;19921;-75
2022/01/08 04:48:12;;;;;;;;;;;0.90;99.90;;;;;;5014105;28;19944;-75
2022/01/08 04:50:38;;;;;;;;;;;0.70;99.90;;;;;;5014165;28;20377;-76
2022/01/08 04:53:03;;;;;;;;;;;0.70;99.90;;;;;;5013636;28;20302;-76
2022/01/08 04:55:29;;;;;;;;;;;0.60;99.90;;;;;;5013744;28;20309;-75
2022/01/08 04:57:55;;;;;;;;;;;0.60;99.90;;;;;;5014001;28;20361;-75
2022/01/08 05:00:20;;;;;;;;;;;0.50;99.90;;;;;;5014135;28;19929;-75
2022/01/08 05:02:46;;;;;;;;;;;0.50;99.90;;;;;;5013644;28;19921;-75
2022/01/08 05:05:12;;;;;;;;;;;0.40;99.90;;;;;;5014219;28;19921;-75
2022/01/08 05:07:38;;;;;;;;;;;0.30;99.90;;;;;;5013684;28;19921;-76
2022/01/08 05:10:04;;;;;;;;;;;0.30;99.90;;;;;;5013879;28;20011;-76
2022/01/08 05:12:29;;;;;;;;;;;0.30;99.90;;;;;;5013918;28;20020;-75
2022/01/08 05:14:56;;;;;;;;;;;0.30;99.90;;;;;;5014001;28;20024;-75
2022/01/08 05:17:28;;;;;;;;;;;0.30;99.90;;;;;;5014125;28;19921;-75
2022/01/08 05:19:54;;;;;;;;;;;0.20;99.90;;;;;;5016537;28;19921;-75
2022/01/08 05:22:28;;;;;;;;;;;0.20;99.90;;;;;;5017309;28;19931;-76
2022/01/08 05:24:54;;;;;;;;;;;0.20;99.90;;;;;;5017414;28;20396;-75
2022/01/08 05:27:20;;;;;;;;;;;0.20;99.90;;;;;;5017492;28;20027;-76
2022/01/08 05:29:46;;;;;;;;;;;0.20;99.90;;;;;;5017523;28;19925;-75
2022/01/08 05:32:18;;;;;;;;;;;0.20;99.90;;;;;;5017405;28;20020;-76
2022/01/08 05:34:44;;;;;;;;;;;0.20;99.90;;;;;;5016392;28;20400;-75
2022/01/08 05:37:10;;;;;;;;;;;0.10;99.90;;;;;;5017165;28;19959;-76
2022/01/08 05:39:35;;;;;;;;;;;0.10;99.90;;;;;;5017620;28;20008;-76
2022/01/08 05:42:01;;;;;;;;;;;0.20;99.90;;;;;;5017049;28;20431;-75
2022/01/08 05:44:27;;;;;;;;;;;0.20;99.90;;;;;;5017072;28;19921;-76
2022/01/08 05:46:52;;;;;;;;;;;0.20;99.90;;;;;;5017192;28;19944;-76
2022/01/08 05:49:20;;;;;;;;;;;0.30;99.90;;;;;;5016728;28;19921;-75
2022/01/08 05:51:46;;;;;;;;;;;0.30;99.90;;;;;;5016902;28;19932;-75
2022/01/08 05:54:14;;;;;;;;;;;0.30;99.90;;;;;;5016656;28;20421;-76
2022/01/08 05:56:40;;;;;;;;;;;0.30;99.90;;;;;;5017236;28;19972;-75
2022/01/08 05:59:05;;;;;;;;;;;0.20;99.90;;;;;;5016904;28;19929;-76
2022/01/08 06:01:34;;;;;;;;;;;0.20;99.90;;;;;;5016907;28;20059;-76
2022/01/08 06:04:00;;;;;;;;;;;0.20;99.90;;;;;;5016012;28;19924;-76
2022/01/08 06:06:26;;;;;;;;;;;0.30;99.90;;;;;;5017059;28;19943;-76
2022/01/08 06:08:51;;;;;;;;;;;0.30;99.90;;;;;;5016715;28;20390;-76
2022/01/08 06:11:17;;;;;;;;;;;0.20;99.90;;;;;;5016732;28;20015;-76
2022/01/08 06:13:43;;;;;;;;;;;0.30;99.90;;;;;;5016153;28;19927;-76
2022/01/08 06:16:08;;;;;;;;;;;0.20;99.90;;;;;;5016618;28;19968;-76
2022/01/08 06:18:35;;;;;;;;;;;0.30;99.90;;;;;;5016863;28;20318;-75
2022/01/08 06:21:01;;;;;;;;;;;0.20;99.90;;;;;;5016554;28;19976;-76
2022/01/08 06:23:27;;;;;;;;;;;0.20;99.90;;;;;;5015967;28;19964;-76
2022/01/08 06:25:53;;;;;;;;;;;0.20;99.90;;;;;;5016612;28;19925;-76
2022/01/08 06:28:19;;;;;;;;;;;0.20;99.90;;;;;;5016234;28;19932;-76
2022/01/08 06:30:46;;;;;;;;;;;0.20;99.90;;;;;;5015970;28;19925;-76
2022/01/08 06:33:11;;;;;;;;;;;0.20;99.90;;;;;;5015944;28;19979;-76
2022/01/08 06:35:39;;;;;;;;;;;0.30;99.90;;;;;;5016068;28;19968;-76
2022/01/08 06:38:05;;;;;;;;;;;0.20;99.90;;;;;;5016122;28;20377;-76
2022/01/08 06:40:33;;;;;;;;;;;0.20;99.90;;;;;;5015154;28;19925;-75
2022/01/08 06:42:58;;;;;;;;;;;0.20;99.90;;;;;;5032232;28;20002;-75
2022/01/08 06:45:27;;;;;;;;;;;0.20;99.90;;;;;;5016520;28;19927;-76
2022/01/08 06:47:53;;;;;;;;;;;0.10;99.90;;;;;;5015885;28;20027;-76
2022/01/08 06:50:18;;;;;;;;;;;0.20;99.90;;;;;;5015747;28;19928;-76
2022/01/08 06:52:44;;;;;;;;;;;0.20;99.90;;;;;;5015832;28;19925;-75
2022/01/08 06:55:10;;;;;;;;;;;0.10;99.90;;;;;;5015950;28;19920;-76
2022/01/08 06:57:38;;;;;;;;;;;0.10;99.90;;;;;;5016602;28;20476;-76
2022/01/08 07:00:04;;;;;;;;;;;0.10;99.90;;;;;;5016197;28;19971;-76
2022/01/08 07:02:29;;;;;;;;;;;0.10;99.90;;;;;;5015267;28;19921;-76
2022/01/08 07:04:55;;;;;;;;;;;0.10;99.90;;;;;;5015494;28;20083;-75
2022/01/08 07:07:21;;;;;;;;;;;0.00;99.90;;;;;;5015566;28;19928;-76
2022/01/08 07:09:46;;;;;;;;;;;0.00;99.90;;;;;;5015301;28;19928;-76
2022/01/08 07:12:12;;;;;;;;;;;0.00;99.90;;;;;;5014985;28;20015;-76
2022/01/08 07:14:38;;;;;;;;;;;0.00;99.90;;;;;;5015320;28;19920;-76
2022/01/08 07:17:03;;;;;;;;;;;-0.10;99.90;;;;;;5015232;28;20030;-76
2022/01/08 07:19:29;;;;;;;;;;;0.00;99.90;;;;;;5015581;28;20143;-76
2022/01/08 07:21:55;;;;;;;;;;;-0.10;99.90;;;;;;5015159;28;19968;-76
2022/01/08 07:24:20;;;;;;;;;;;0.00;99.90;;;;;;5015273;28;19971;-76
2022/01/08 07:26:46;;;;;;;;;;;-0.10;99.90;;;;;;5015277;28;19921;-76
2022/01/08 07:29:12;;;;;;;;;;;-0.10;99.90;;;;;;5015004;28;19975;-76
2022/01/08 07:31:37;;;;;;;;;;;-0.10;99.90;;;;;;5014654;28;19925;-76
2022/01/08 07:34:03;;;;;;;;;;;-0.10;99.90;;;;;;5014402;28;19928;-76
2022/01/08 07:36:28;;;;;;;;;;;-0.10;99.90;;;;;;5015173;28;19925;-76
2022/01/08 07:38:54;;;;;;;;;;;-0.10;99.90;;;;;;5015032;28;19944;-76
2022/01/08 07:41:20;;;;;;;;;;;0.00;99.90;;;;;;5014411;28;19928;-76
2022/01/08 07:43:45;;;;;;;;;;;0.10;99.90;;;;;;5014261;28;20016;-76
2022/01/08 07:46:14;;;;;;;;;;;0.10;99.90;;;;;;5014872;28;19928;-77
2022/01/08 07:48:40;;;;;;;;;;;0.20;99.90;;;;;;5014951;28;20253;-76
2022/01/08 07:51:06;;;;;;;;;;;0.20;99.90;;;;;;5014870;28;19975;-76
2022/01/08 07:53:32;;;;;;;;;;;0.20;99.90;;;;;;5031085;28;20430;-76
2022/01/08 07:55:58;;;;;;;;;;;0.10;99.90;;;;;;5014490;28;20293;-76
2022/01/08 07:58:23;;;;;;;;;;;0.10;99.90;;;;;;5014146;28;19921;-76
2022/01/08 08:00:50;;;;;;;;;;;0.10;99.90;;;;;;5016646;28;19929;-76
2022/01/08 08:03:21;;;;;;;;;;;0.10;99.90;;;;;;5050883;28;19927;-78
2022/01/08 08:05:47;;;;;;;;;;;0.00;99.90;;;;;;5032320;28;19968;-74
2022/01/08 08:08:14;;;;;;;;;;;0.00;99.90;;;;;;5030675;28;19928;-75
2022/01/08 08:10:43;;;;;;;;;;;0.00;99.90;;;;;;5014397;28;19925;-78
2022/01/08 08:13:12;;;;;;;;;;;0.10;99.90;;;;;;5013109;28;19991;-76
2022/01/08 08:15:38;;;;;;;;;;;0.10;99.90;;;;;;5011932;28;20274;-76
2022/01/08 08:18:12;;;;;;;;;;;0.00;99.90;;;;;;5018186;28;19921;-76
2022/01/08 08:20:41;;;;;;;;;;;0.10;99.90;;;;;;5014386;28;20332;-76
2022/01/08 08:23:07;;;;;;;;;;;0.10;99.90;;;;;;5015073;28;19945;-75
2022/01/08 08:25:35;;;;;;;;;;;0.10;99.90;;;;;;5010548;28;20031;-78
2022/01/08 08:28:03;;;;;;;;;;;0.10;99.90;;;;;;5012320;28;19967;-77
2022/01/08 08:30:28;;;;;;;;;;;0.10;99.90;;;;;;5005170;28;19925;-77
2022/01/08 08:32:54;;;;;;;;;;;0.10;99.90;;;;;;5008632;28;20289;-77
2022/01/08 08:35:19;;;;;;;;;;;0.10;99.90;;;;;;5005993;28;19987;-77
2022/01/08 08:37:51;;;;;;;;;;;0.20;99.90;;;;;;5018334;28;19936;-77
2022/01/08 08:40:17;;;;;;;;;;;0.30;99.90;;;;;;5024489;28;20515;-77
2022/01/08 08:42:43;;;;;;;;;;;0.30;99.90;;;;;;5014078;28;19925;-77
2022/01/08 08:45:11;;;;;;;;;;;0.40;99.90;;;;;;5010398;28;20008;-77
2022/01/08 08:47:43;;;;;;;;;;;0.40;99.90;;;;;;5007181;28;20011;-78
2022/01/08 08:50:18;;;;;;;;;;;0.50;99.90;;;;;;5007737;28;20008;-77
2022/01/08 08:52:46;;;;;;;;;;;0.60;99.90;;;;;;5005568;28;20016;-77
2022/01/08 08:55:18;;;;;;;;;;;0.60;99.90;;;;;;5008681;28;19929;-77
2022/01/08 08:57:44;;;;;;;;;;;0.60;99.90;;;;;;5018770;28;19928;-77
2022/01/08 09:00:10;;;;;;;;;;;0.70;99.90;;;;;;5014406;28;19929;-77
2022/01/08 09:02:36;;;;;;;;;;;0.70;99.90;;;;;;5015995;28;20035;-77
2022/01/08 09:05:02;;;;;;;;;;;0.70;99.90;;;;;;5018451;28;20006;-77
2022/01/08 09:07:34;;;;;;;;;;;0.70;99.90;;;;;;5013074;28;20385;-77
2022/01/08 09:10:03;;;;;;;;;;;0.80;99.90;;;;;;5008833;28;20010;-77
2022/01/08 09:12:30;;;;;;;;;;;0.80;99.90;;;;;;5017467;28;19929;-77
2022/01/08 09:14:55;;;;;;;;;;;0.80;99.90;;;;;;5018234;28;20288;-77
2022/01/08 09:17:21;;;;;;;;;;;0.80;99.90;;;;;;5007963;28;20000;-77
2022/01/08 09:19:54;;;;;;;;;;;0.90;99.90;;;;;;5010988;28;19945;-77
2022/01/08 09:22:23;;;;;;;;;;;0.90;99.90;;;;;;5031187;28;20292;-79
2022/01/08 09:24:57;;;;;;;;;;;1.00;99.90;;;;;;5028578;28;20016;-78
2022/01/08 09:27:23;;;;;;;;;;;1.00;99.90;;;;;;5033802;28;20285;-80
2022/01/08 09:29:51;;;;;;;;;;;1.00;99.90;;;;;;5014857;28;20337;-80
2022/01/08 09:32:29;;;;;;;;;;;1.10;99.90;;;;;;5008006;28;19932;-78
2022/01/08 09:34:55;;;;;;;;;;;1.10;99.90;;;;;;5017456;28;20016;-77
2022/01/08 09:37:21;;;;;;;;;;;1.20;99.90;;;;;;5015538;28;20004;-77
2022/01/08 09:39:52;;;;;;;;;;;1.20;99.90;;;;;;5021514;28;20313;-77
2022/01/08 09:42:20;;;;;;;;;;;1.20;99.90;;;;;;5015148;28;20019;-77
2022/01/08 09:44:46;;;;;;;;;;;1.20;99.90;;;;;;5016742;28;19991;-77
2022/01/08 09:47:23;;;;;;;;;;;1.20;99.90;;;;;;5025542;28;19974;-76
2022/01/08 09:49:50;;;;;;;;;;;1.20;99.90;;;;;;5027139;28;19971;-76
2022/01/08 09:52:15;;;;;;;;;;;1.20;99.90;;;;;;5017207;28;20443;-78
2022/01/08 09:54:41;;;;;;;;;;;1.20;99.90;;;;;;5016853;28;19921;-76
2022/01/08 09:57:06;;;;;;;;;;;1.30;99.90;;;;;;5019420;28;19975;-76
2022/01/08 09:59:33;;;;;;;;;;;1.30;99.90;;;;;;5020149;28;19925;-76
2022/01/08 10:02:00;;;;;;;;;;;1.30;99.90;;;;;;5016953;28;19925;-76
2022/01/08 10:04:30;;;;;;;;;;;1.40;99.90;;;;;;5015856;28;20312;-78
2022/01/08 10:07:14;;;;;;;;;;;1.50;99.90;;;;;;5018206;28;19921;-75
2022/01/08 10:09:56;;;;;;;;;;;1.60;99.90;;;;;;5016087;28;20408;-75
2022/01/08 10:12:34;;;;;;;;;;;1.80;99.90;;;;;;5016664;28;19995;-75
2022/01/08 10:17:45;;;;;;;;;;;1.90;99.90;;;;;;5023091;28;19928;-75
2022/01/08 10:20:32;;;;;;;;;;;2.00;99.90;;;;;;5007202;28;20000;-77
2022/01/08 10:23:22;;;;;;;;;;;2.10;99.90;;;;;;5006895;28;19921;-75
2022/01/08 10:25:54;;;;;;;;;;;2.20;99.90;;;;;;5011761;28;20379;-75
2022/01/08 10:28:31;;;;;;;;;;;2.30;99.90;;;;;;5016429;28;19928;-77
2022/01/08 10:31:05;;;;;;;;;;;2.30;99.90;;;;;;5016665;28;19929;-77
2022/01/08 10:33:31;;;;;;;;;;;2.40;99.90;;;;;;5016133;28;20047;-77
2022/01/08 10:35:56;;;;;;;;;;;2.50;99.90;;;;;;5016377;28;19959;-77
2022/01/08 10:38:26;;;;;;;;;;;2.60;99.90;;;;;;5017194;28;19921;-77
2022/01/08 10:40:51;;;;;;;;;;;2.60;99.90;;;;;;5048508;28;19920;-77
2022/01/08 10:43:21;;;;;;;;;;;2.60;99.90;;;;;;5035916;28;20349;-77
2022/01/08 10:45:50;;;;;;;;;;;2.70;99.90;;;;;;5016825;28;19925;-77
2022/01/08 10:48:29;;;;;;;;;;;2.70;99.90;;;;;;5007186;28;19928;-77
2022/01/08 10:51:09;;;;;;;;;;;2.90;99.90;;;;;;5005301;28;20075;-77
2022/01/08 10:53:58;;;;;;;;;;;2.90;99.90;;;;;;5022216;28;19947;-77
2022/01/08 10:56:25;;;;;;;;;;;3.00;99.90;;;;;;5017128;28;20016;-77
2022/01/08 10:58:53;;;;;;;;;;;3.20;99.90;;;;;;5010812;28;19921;-77
2022/01/08 11:01:37;;;;;;;;;;;3.20;99.90;;;;;;5033464;28;20573;-78
2022/01/08 11:04:06;;;;;;;;;;;3.30;99.90;;;;;;5014429;28;19967;-77
2022/01/08 11:06:58;;;;;;;;;;;3.40;99.90;;;;;;5017829;28;19932;-78
2022/01/08 11:09:25;;;;;;;;;;;3.50;99.90;;;;;;5006164;28;20396;-77
2022/01/08 11:11:52;;;;;;;;;;;3.60;99.90;;;;;;5015245;28;20000;-78
2022/01/08 11:14:45;;;;;;;;;;;3.70;99.90;;;;;;5004414;28;19921;-76
2022/01/08 11:17:11;;;;;;;;;;;3.70;99.90;;;;;;5023771;28;19921;-76
2022/01/08 11:19:37;;;;;;;;;;;3.80;99.90;;;;;;5011262;28;20404;-76
2022/01/08 11:22:04;;;;;;;;;;;3.80;99.90;;;;;;5019814;28;19921;-77
2022/01/08 11:24:31;;;;;;;;;;;3.80;99.90;;;;;;5019107;28;19928;-77
2022/01/08 11:26:58;;;;;;;;;;;3.80;99.90;;;;;;5011850;28;19976;-77
2022/01/08 11:29:25;;;;;;;;;;;3.80;99.90;;;;;;5011739;28;19921;-77
2022/01/08 11:31:55;;;;;;;;;;;3.80;99.90;;;;;;5021676;28;20024;-76
2022/01/08 11:34:23;;;;;;;;;;;3.90;99.90;;;;;;5020682;28;20051;-77
2022/01/08 11:36:50;;;;;;;;;;;4.00;99.90;;;;;;5010995;28;20350;-76
2022/01/08 11:39:16;;;;;;;;;;;4.10;99.90;;;;;;5024057;28;20281;-77
2022/01/08 11:41:42;;;;;;;;;;;4.20;99.90;;;;;;5013862;28;19975;-77
2022/01/08 11:44:08;;;;;;;;;;;4.20;99.90;;;;;;5020786;28;19932;-77
2022/01/08 11:46:35;;;;;;;;;;;4.20;99.90;;;;;;5034857;28;20016;-76
2022/01/08 11:49:01;;;;;;;;;;;4.10;99.90;;;;;;5017114;28;19944;-76
2022/01/08 11:51:29;;;;;;;;;;;4.00;99.90;;;;;;5015178;28;20365;-76
2022/01/08 11:54:02;;;;;;;;;;;4.00;99.90;;;;;;5023032;28;19921;-76
2022/01/08 11:56:28;;;;;;;;;;;3.90;99.90;;;;;;5006938;28;19929;-77
2022/01/08 11:59:18;;;;;;;;;;;4.10;99.90;;;;;;5030887;28;19928;-77
2022/01/08 12:01:55;;;;;;;;;;;4.00;99.90;;;;;;5013422;28;19943;-77
2022/01/08 12:04:24;;;;;;;;;;;4.10;99.90;;;;;;5040031;28;20007;-77
2022/01/08 12:06:50;;;;;;;;;;;4.10;99.90;;;;;;5021481;28;19921;-77
2022/01/08 12:09:21;;;;;;;;;;;4.10;99.90;;;;;;5014227;28;19921;-76
2022/01/08 12:11:46;;;;;;;;;;;4.00;99.90;;;;;;5010599;28;19926;-76
2022/01/08 12:14:19;;;;;;;;;;;3.90;99.90;;;;;;5013896;28;19928;-76
2022/01/08 12:16:45;;;;;;;;;;;3.90;99.90;;;;;;5019733;28;20286;-76
2022/01/08 12:19:29;;;;;;;;;;;3.90;99.90;;;;;;5022652;28;19928;-76
2022/01/08 12:21:55;;;;;;;;;;;3.80;99.90;;;;;;5030432;28;19921;-76
2022/01/08 12:24:27;;;;;;;;;;;3.80;99.90;;;;;;5013390;28;20374;-76
2022/01/08 12:26:59;;;;;;;;;;;3.80;99.90;;;;;;5011197;28;20331;-76
2022/01/08 12:29:34;;;;;;;;;;;3.90;99.90;;;;;;5011086;28;19921;-76
2022/01/08 12:32:18;;;;;;;;;;;3.90;99.90;;;;;;5046647;28;20364;-76
2022/01/08 12:34:51;;;;;;;;;;;3.90;99.90;;;;;;5014442;28;19927;-76
2022/01/08 12:37:17;;;;;;;;;;;4.00;99.90;;;;;;5014137;28;19925;-76
2022/01/08 12:39:47;;;;;;;;;;;4.00;99.90;;;;;;5014263;28;19921;-76
2022/01/08 12:42:19;;;;;;;;;;;4.00;99.90;;;;;;5014249;28;19921;-77
2022/01/08 12:44:57;;;;;;;;;;;3.90;99.90;;;;;;5014643;28;19921;-77
2022/01/08 12:47:41;;;;;;;;;;;3.90;99.90;;;;;;5014315;28;19921;-77
2022/01/08 12:50:27;;;;;;;;;;;3.90;99.90;;;;;;5018543;28;19932;-76
2022/01/08 12:53:05;;;;;;;;;;;3.90;99.90;;;;;;5027934;28;19925;-76
2022/01/08 12:55:31;;;;;;;;;;;3.90;99.90;;;;;;5018949;28;19927;-76
2022/01/08 12:57:57;;;;;;;;;;;3.90;99.90;;;;;;5013510;28;19929;-76
2022/01/08 13:00:23;;;;;;;;;;;3.90;99.90;;;;;;5030775;28;19920;-76
2022/01/08 13:02:54;;;;;;;;;;;3.90;99.90;;;;;;5015942;28;19971;-77
2022/01/08 13:05:23;;;;;;;;;;;3.80;99.90;;;;;;5013854;28;19925;-76
2022/01/08 13:07:49;;;;;;;;;;;3.80;99.90;;;;;;5029875;28;19978;-77
2022/01/08 13:10:18;;;;;;;;;;;3.80;99.90;;;;;;5015015;28;19921;-77
2022/01/08 13:13:00;;;;;;;;;;;3.80;99.90;;;;;;5013176;28;19933;-77
2022/01/08 13:15:30;;;;;;;;;;;3.80;99.90;;;;;;5029149;28;20130;-76
2022/01/08 13:18:14;;;;;;;;;;;3.80;99.90;;;;;;5029550;28;19921;-76
2022/01/08 13:20:40;;;;;;;;;;;3.80;99.90;;;;;;5029799;28;19990;-76
2022/01/08 13:23:05;;;;;;;;;;;3.80;99.90;;;;;;5013687;28;20008;-76
2022/01/08 13:25:31;;;;;;;;;;;3.80;99.90;;;;;;5013355;28;19921;-76
2022/01/08 13:28:02;;;;;;;;;;;3.70;99.90;;;;;;5012924;28;19921;-76
2022/01/08 13:30:28;;;;;;;;;;;3.70;99.90;;;;;;5013671;28;19954;-75
2022/01/08 13:33:01;;;;;;;;;;;3.70;99.90;;;;;;5013404;28;20400;-76
2022/01/08 13:35:29;;;;;;;;;;;3.70;99.90;;;;;;5011863;28;19990;-75
2022/01/08 13:38:00;;;;;;;;;;;3.60;99.90;;;;;;5013286;28;20389;-77
2022/01/08 13:40:29;;;;;;;;;;;3.60;99.90;;;;;;5014904;28;19921;-77
2022/01/08 13:42:54;;;;;;;;;;;3.60;99.90;;;;;;5016686;28;19921;-75
2022/01/08 13:45:25;;;;;;;;;;;3.60;99.90;;;;;;5016090;28;19991;-77
2022/01/08 13:47:54;;;;;;;;;;;3.60;99.90;;;;;;5017580;28;19921;-78
2022/01/08 13:50:50;;;;;;;;;;;3.50;99.90;;;;;;5019105;28;19983;-79
2022/01/08 13:53:22;;;;;;;;;;;3.50;99.90;;;;;;5036968;28;19985;-79
2022/01/08 13:55:59;;;;;;;;;;;3.50;99.90;;;;;;5020937;28;20023;-79
2022/01/08 13:58:35;;;;;;;;;;;3.50;99.90;;;;;;5020912;28;19928;-78
2022/01/08 14:01:17;;;;;;;;;;;;;;;;;;;;;
2022/01/08 14:03:45;;;;;;;;;;;3.50;99.90;;;;;;5033417;28;19921;-79
2022/01/08 14:06:27;;;;;;;;;;;3.50;99.90;;;;;;5011587;28;19926;-78
2022/01/08 14:09:01;;;;;;;;;;;3.50;99.90;;;;;;5012894;28;19925;-77
2022/01/08 14:11:31;;;;;;;;;;;3.50;99.90;;;;;;5016217;28;19971;-75
2022/01/08 14:13:58;;;;;;;;;;;3.50;99.90;;;;;;5032735;28;20007;-75
2022/01/08 14:16:34;;;;;;;;;;;3.50;99.90;;;;;;5016137;28;19921;-75
2022/01/08 14:19:17;;;;;;;;;;;3.40;99.90;;;;;;5016620;28;20393;-75
2022/01/08 14:21:54;;;;;;;;;;;3.50;99.90;;;;;;5016339;28;19929;-75
2022/01/08 14:24:20;;;;;;;;;;;3.40;99.90;;;;;;5016185;28;20389;-75
2022/01/08 14:27:02;;;;;;;;;;;3.40;99.90;;;;;;5016183;28;20334;-75
2022/01/08 14:29:29;;;;;;;;;;;3.40;99.90;;;;;;5016568;28;19921;-75
2022/01/08 14:31:57;;;;;;;;;;;3.30;99.90;;;;;;5016041;28;19925;-75
2022/01/08 14:34:26;;;;;;;;;;;3.30;99.90;;;;;;5016790;28;19928;-75
2022/01/08 14:36:56;;;;;;;;;;;3.30;99.90;;;;;;5016355;28;19921;-75
2022/01/08 14:39:34;;;;;;;;;;;3.30;99.90;;;;;;5016419;28;19975;-75
2022/01/08 14:42:05;;;;;;;;;;;3.20;99.90;;;;;;5032411;28;19925;-75
2022/01/08 14:44:34;;;;;;;;;;;3.20;99.90;;;;;;5032337;28;20455;-78
2022/01/08 14:47:09;;;;;;;;;;;3.20;99.90;;;;;;5015841;28;20016;-77
2022/01/08 14:49:34;;;;;;;;;;;3.20;99.90;;;;;;5016094;28;19928;-76
2022/01/08 14:52:02;;;;;;;;;;;3.20;99.90;;;;;;5015631;28;19926;-77
2022/01/08 14:54:29;;;;;;;;;;;3.10;99.90;;;;;;5015519;28;20008;-77
2022/01/08 14:56:58;;;;;;;;;;;3.00;99.90;;;;;;5015356;28;19921;-77
2022/01/08 14:59:24;;;;;;;;;;;3.00;99.90;;;;;;5015528;28;19921;-76